Flight Track Log - Related Links

Times and Time Zones

All times are in EDT time to prevent confusion due to time zone crossing. See the UAL4422 flight status page for this flight to view local times or setup timezone preferences in your user account.

Time Position Orientation Groundspeed Altitude Reporting Facility
EDT Latitude Longitude Course Direction KTS MPH feet Rate Location/Type
Wed 04:35:19 PM 29.9756 -95.3347 258° West 161 185 800  Level Houston Center
Wed 04:35:56 PM 29.9686 -95.3717 258° West 194 223 1,900 1,026 Climbing Houston Center
Wed 04:36:35 PM 29.9631 -95.4039 259° West 209 241 2,100 1,672 Climbing Houston Center
Wed 04:36:57 PM 29.9547 -95.4506 258° West 258 297 3,600 2,226 Climbing Houston Center
Wed 04:37:37 PM 29.9672 -95.5008 286° West 257 296 4,400 1,742 Climbing Houston Center
Wed 04:37:59 PM 29.9722 -95.5281 282° West 259 298 5,400 2,419 Climbing Houston Center
Wed 04:38:39 PM 29.9825 -95.5808 283° West 255 293 6,900 2,262 Climbing Houston Center
Wed 04:39:00 PM 29.9881 -95.6106 282° West 266 306 7,700 2,095 Climbing Houston Center
Wed 04:39:42 PM 29.9981 -95.6653 282° West 265 305 9,100 2,262 Climbing Houston Center
Wed 04:40:01 PM 30.0042 -95.6978 282° West 280 322 10,000 1,742 Climbing Houston Center
Wed 04:40:44 PM 30.0142 -95.7531 282° West 278 320 10,900 1,075 Climbing Houston Center
Wed 04:41:08 PM 30.0222 -95.8067 280° West 303 349 11,200 677 Climbing Houston Center
Wed 04:41:46 PM 30.0328 -95.8536 285° West 320 368 11,600 1,020 Climbing Houston Center
Wed 04:42:48 PM 30.0569 -95.9872 282° West 355 409 12,900 1,161 Climbing Houston Center
Wed 04:43:50 PM 30.0753 -96.0900 282° West 359 413 14,000 1,113 Climbing Houston Center
Wed 04:44:52 PM 30.0933 -96.2047 280° West 365 420 15,200 1,296 Climbing Houston Center
Wed 04:45:55 PM 30.1142 -96.3433 280° West 369 425 16,700 1,248 Climbing Houston Center
Wed 04:46:57 PM 30.1300 -96.4514 280° West 369 425 17,800 1,161 Climbing Houston Center
Wed 04:47:59 PM 30.1489 -96.5692 281° West 370 426 19,100 1,355 Climbing Houston Center
Wed 04:49:01 PM 30.1697 -96.7103 280° West 376 433 20,600 1,306 Climbing Houston Center
Wed 04:50:03 PM 30.1872 -96.8339 279° West 384 442 21,800 1,161 Climbing Houston Center
Wed 04:51:05 PM 30.2056 -96.9558 280° West 383 441 23,000 1,210 Climbing Houston Center
Wed 04:52:07 PM 30.2247 -97.0775 280° West 381 438 24,300 1,248 Climbing Houston Center
Wed 04:53:10 PM 30.2425 -97.1994 280° West 380 437 25,600 1,296 Climbing Houston Center
Wed 04:54:12 PM 30.2600 -97.3167 280° West 370 426 27,000 1,355 Climbing Houston Center
Wed 04:55:14 PM 30.2761 -97.4339 279° West 365 420 28,400 1,403 Climbing Houston Center
Wed 04:56:16 PM 30.2928 -97.5469 280° West 353 406 29,900 1,500 Climbing Houston Center
Wed 04:57:18 PM 30.3114 -97.6756 280° West 345 397 31,500 1,500 Climbing Houston Center
Wed 04:58:20 PM 30.3267 -97.7858 279° West 342 394 33,000 1,210 Climbing Houston Center
Wed 04:59:22 PM 30.3425 -97.8933 280° West 337 388 34,000 480 Climbing Houston Center
Wed 05:00:25 PM 30.3581 -98.0044 279° West 345 397 34,000  Level Houston Center
Wed 05:01:27 PM 30.4019 -98.1158 295° West 375 432 34,000  Level Houston Center
Wed 05:02:29 PM 30.4506 -98.2292 296° West 384 442 34,000  Level Houston Center
Wed 05:03:31 PM 30.4972 -98.3397 296° West 379 436 34,000  Level Houston Center
Wed 05:04:33 PM 30.5450 -98.4494 297° West 376 433 34,000  Level Houston Center
Wed 05:05:35 PM 30.5989 -98.5772 296° West 374 430 34,000  Level Houston Center
Wed 05:06:38 PM 30.6450 -98.6853 296° West 372 428 34,000  Level Houston Center
Wed 05:07:40 PM 30.6906 -98.7933 296° West 369 425 34,000  Level Houston Center
Wed 05:08:42 PM 30.7364 -98.9022 296° West 371 427 34,000  Level Houston Center
Wed 05:09:44 PM 30.7817 -99.0111 296° West 371 427 34,000  Level Houston Center
Wed 05:10:46 PM 30.8283 -99.1208 296° West 374 430 34,000  Level Houston Center
Wed 05:11:49 PM 30.8736 -99.2300 296° West 375 432 34,000  Level Houston Center
Wed 05:12:51 PM 30.9278 -99.3619 296° West 377 434 34,000  Level Houston Center
Wed 05:13:53 PM 30.9742 -99.4733 296° West 382 440 34,000  Level Houston Center
Wed 05:14:55 PM 31.0203 -99.5831 296° West 386 444 34,000  Level Houston Center
Wed 05:15:57 PM 31.0667 -99.6967 296° West 389 448 34,000  Level Houston Center
Wed 05:16:59 PM 31.1139 -99.8114 296° West 393 452 34,000  Level Houston Center
Wed 05:18:01 PM 31.1697 -99.9475 296° West 388 447 34,000  Level Houston Center
Wed 05:19:03 PM 31.2169 -100.0597 296° West 386 444 34,000  Level Houston Center
Wed 05:20:06 PM 31.2617 -100.1731 295° West 387 445 34,000 -192 Level Houston Center
Wed 05:21:08 PM 31.3047 -100.2869 294° West 385 443 33,600 -871 Descending Houston Center
Wed 05:22:10 PM 31.3097 -100.3989 273° West 344 396 32,200 -1,438 Descending Houston Center
Wed 05:22:44 PM 31.3161 -100.4697 276° West 356 410 31,300 -1,843 Descending Fort Worth Center
Wed 05:24:43 PM 31.3247 -100.7058 273° West 361 415 27,500 -1,967 Descending Fort Worth Center
Wed 05:25:44 PM 31.3528 -100.8214 286° West 361 415 25,400 -2,380 Descending Fort Worth Center
Wed 05:26:44 PM 31.4122 -100.9453 299° West 384 442 22,700 -2,400 Descending Fort Worth Center
Wed 05:27:44 PM 31.4694 -101.0544 302° West 389 448 20,600 -2,050 Descending Fort Worth Center
Wed 05:28:44 PM 31.5206 -101.1614 299° West 389 448 18,600 -2,000 Descending Fort Worth Center
Wed 05:29:44 PM 31.5697 -101.2681 298° West 384 442 16,600 -2,050 Descending Fort Worth Center
Wed 05:30:44 PM 31.6206 -101.3728 300° West 384 442 14,500 -1,350 Descending Fort Worth Center
Wed 05:31:44 PM 31.6697 -101.4750 299° West 379 436 13,900 -700 Descending Fort Worth Center
Wed 05:32:44 PM 31.6975 -101.5761 288° West 351 404 13,100 -1,000 Descending Fort Worth Center
Wed 05:33:44 PM 31.7114 -101.6622 281° West 310 357 11,900 -1,200 Descending Fort Worth Center
Wed 05:34:44 PM 31.7211 -101.7481 278° West 280 322 10,700 -1,250 Descending Fort Worth Center
Wed 05:35:44 PM 31.7347 -101.8342 281° West 273 314 9,400 -1,210 Descending Fort Worth Center
Wed 05:36:43 PM 31.7464 -101.9156 280° West 268 308 8,300 -1,250 Descending Fort Worth Center
Wed 05:37:44 PM 31.7561 -101.9967 278° West 263 303 6,900 -1,388 Descending Fort Worth Center
Wed 05:38:44 PM 31.7633 -102.0800 276° West 258 297 5,500 -1,400 Descending Fort Worth Center

Login

Don't have an account? Register now (free) for customized features, flight alerts, and more!